Ana Sayfa
METAR-TAF:

METAR-TAF

Havaalanları :

Erzincan Havalimanı

Erzincan, Türkiye

Enlem: 39-44N, Boylam: 039-30E, yükseklik: 1156 m

Güncel hava durumu gözlemi

Rapor saat 19:50 UTC de 57 dakika önce yapıldı.
Rüzgar batıdan 2 kt
Sıcaklık 14°C
Nem 94%
Basınç 1019 hPa
Görüş mesafesi 10 km veya daha fazla
4000 ft yükseklikte az bulutlu
10000 ft yükseklikte parçalı bulutlu

METAR: LTCD 231950Z 27002KT 9999 FEW040 SCT100 14/13 Q1019 NOSIG

Saat: 23:47 (20:47 UTC)

Tahmin

Rapor saat 19:40 UTC de 1 saat ve 7 dakika önce yapıldı.
Ayın 23'si saat 21 UTC'den ayın 24'si saat 06 UTC'ye kadar geçerli Tahmin
Rüzgar batıdan 5 kt
Görüş mesafesi 10 km veya daha fazla
4000 ft yükseklikte az bulutlu
10000 ft yükseklikte parçalı bulutlu

TAF: LTCD 231940Z 2321/2406 27005KT 9999 FEW040 SCT100

4.000'den fazla havaalanı için hava durumu gözlemleri ve tahminleri (METAR ve TAF raporları).

Kullanılabilir istasyonlar harita üzerinde sarı ve kırmızı noktalarla gösterilir.

İstasyonun adını görmek için fareyi noktanın üzerinde gezdirin.

Sonrasında hava gözlem ve tahminlerini görmek için tıklayın.

Haritayı değiştirmek için: yaklaştırmak için siyah artı işaretli yeşil düğmeye ve uzaklaştırmak için de eksi işaretli düğmeye hızla tıklayın; bitişik haritalar için yeşil okları kullanın.


METAR-TAF: